Time;durP1;ratioP1;P1;durP2;ratioP2;P2;SDS_P1;SDS_P2;PMS_P1;PMS_P2;Temp;Humidity;BMP_temperature;BMP_pressure;BME280_temperature;BME280_humidity;BME280_pressure;Samples;Min_cycle;Max_cycle;Signal;HPM_P1;HPM_P2
2022/02/19 00:00:26;;;;;;;6.33;0.80;;;8.20;99.90;;;;;;5033456;28;20453;-53
2022/02/19 00:02:53;;;;;;;1.03;0.80;;;8.20;99.90;;;;;;5031996;28;20992;-50
2022/02/19 00:05:22;;;;;;;2.70;0.73;;;8.20;99.90;;;;;;5031581;28;20522;-56
2022/02/19 00:07:49;;;;;;;5.17;1.03;;;8.20;99.90;;;;;;5032612;28;20461;-51
2022/02/19 00:10:16;;;;;;;3.83;1.20;;;8.20;99.90;;;;;;5032431;28;20477;-52
2022/02/19 00:12:43;;;;;;;2.17;0.80;;;8.20;99.90;;;;;;5032236;28;20444;-51
2022/02/19 00:15:11;;;;;;;1.33;0.70;;;8.20;99.90;;;;;;5032458;28;20499;-50
2022/02/19 00:17:38;;;;;;;7.97;1.30;;;8.20;99.90;;;;;;5031401;28;20470;-53
2022/02/19 00:20:07;;;;;;;3.50;1.50;;;8.20;99.90;;;;;;5020197;28;20451;-52
2022/02/19 00:22:36;;;;;;;7.70;1.00;;;8.20;99.90;;;;;;5019106;28;20451;-52
2022/02/19 00:25:04;;;;;;;3.87;1.00;;;8.20;99.90;;;;;;5018869;28;20986;-52
2022/02/19 00:27:30;;;;;;;3.63;0.90;;;8.20;99.90;;;;;;5024778;28;20530;-60
2022/02/19 00:29:57;;;;;;;7.53;0.90;;;8.20;99.90;;;;;;5021238;28;20453;-54
2022/02/19 00:32:24;;;;;;;1.07;0.70;;;8.10;99.90;;;;;;5018362;28;20818;-52
2022/02/19 00:34:51;;;;;;;5.27;0.90;;;8.10;99.90;;;;;;5020118;28;20480;-55
2022/02/19 00:37:17;;;;;;;2.93;1.00;;;8.10;99.90;;;;;;5022328;28;20526;-55
2022/02/19 00:39:45;;;;;;;1.47;1.10;;;8.10;99.90;;;;;;5018460;28;20480;-53
2022/02/19 00:42:12;;;;;;;2.00;0.80;;;8.00;99.90;;;;;;5019032;28;20529;-54
2022/02/19 00:44:39;;;;;;;1.10;0.80;;;8.00;99.90;;;;;;5018519;28;20473;-53
2022/02/19 00:47:06;;;;;;;3.13;1.07;;;8.00;99.90;;;;;;5021730;28;20795;-55
2022/02/19 00:49:32;;;;;;;4.33;1.03;;;8.00;99.90;;;;;;5022281;28;20917;-51
2022/02/19 00:51:59;;;;;;;1.67;0.93;;;8.00;99.90;;;;;;5020750;28;20474;-52
2022/02/19 00:54:26;;;;;;;1.60;1.03;;;8.00;99.90;;;;;;5020424;28;20446;-52
2022/02/19 00:56:54;;;;;;;1.47;1.20;;;7.90;99.90;;;;;;5018888;28;20450;-51
2022/02/19 00:59:20;;;;;;;1.70;0.90;;;7.90;99.90;;;;;;5018749;28;20458;-54
2022/02/19 01:01:47;;;;;;;1.40;0.87;;;7.90;99.90;;;;;;5018592;28;20521;-51
2022/02/19 01:04:13;;;;;;;5.53;1.40;;;7.90;99.90;;;;;;5018838;28;20944;-58
2022/02/19 01:06:40;;;;;;;3.57;0.90;;;7.90;99.90;;;;;;5022582;28;20494;-53
2022/02/19 01:09:07;;;;;;;3.60;1.50;;;7.90;99.90;;;;;;5020038;28;20517;-52
2022/02/19 01:11:39;;;;;;;2.80;0.87;;;7.90;99.90;;;;;;5018546;28;20501;-53
2022/02/19 01:14:08;;;;;;;3.00;0.80;;;7.90;99.90;;;;;;5017578;28;20490;-51
2022/02/19 01:16:34;;;;;;;5.87;1.50;;;7.90;99.90;;;;;;5016655;28;20487;-55
2022/02/19 01:19:01;;;;;;;2.43;1.07;;;7.80;99.90;;;;;;5016181;28;20452;-50
2022/02/19 01:21:28;;;;;;;3.73;0.83;;;7.80;99.90;;;;;;5016205;28;20918;-54
2022/02/19 01:23:55;;;;;;;12.03;1.80;;;7.80;99.90;;;;;;5018778;28;20480;-55
2022/02/19 01:26:22;;;;;;;3.37;1.00;;;7.80;99.90;;;;;;5021278;28;20477;-51
2022/02/19 01:28:48;;;;;;;2.60;1.27;;;7.80;99.90;;;;;;5019209;28;20480;-58
2022/02/19 01:31:20;;;;;;;2.67;1.20;;;7.80;99.90;;;;;;5020020;28;20479;-53
2022/02/19 01:33:47;;;;;;;5.57;1.50;;;7.80;99.90;;;;;;5016303;28;20563;-56
2022/02/19 01:36:13;;;;;;;3.10;0.93;;;7.80;99.90;;;;;;5016181;28;20511;-55
2022/02/19 01:38:40;;;;;;;5.07;1.53;;;7.80;99.90;;;;;;5015714;28;20483;-55
2022/02/19 01:41:07;;;;;;;7.83;1.23;;;7.80;99.90;;;;;;5015925;28;21031;-54
2022/02/19 01:43:33;;;;;;;1.30;1.00;;;8.40;99.70;;;;;;5018005;28;20486;-56
2022/02/19 01:46:00;;;;;;;10.47;1.47;;;7.80;99.00;;;;;;5019771;28;20779;-55
2022/02/19 01:48:28;;;;;;;6.83;0.97;;;7.90;99.40;;;;;;5019102;28;20465;-55
2022/02/19 01:50:54;;;;;;;1.60;0.70;;;7.80;99.70;;;;;;5019447;28;20440;-52
2022/02/19 01:53:22;;;;;;;5.30;1.10;;;7.80;98.60;;;;;;5022383;28;20486;-55
2022/02/19 01:55:48;;;;;;;2.60;1.20;;;7.80;98.60;;;;;;5023896;28;20480;-53
2022/02/19 01:58:15;;;;;;;2.27;1.10;;;7.80;97.60;;;;;;5019434;28;20524;-49
2022/02/19 02:00:42;;;;;;;1.27;0.70;;;7.80;97.30;;;;;;5019463;28;20450;-52
2022/02/19 02:03:09;;;;;;;16.90;1.43;;;7.80;97.20;;;;;;5019825;28;20467;-50
2022/02/19 02:05:37;;;;;;;3.33;1.20;;;7.80;95.90;;;;;;5019570;28;20509;-52
2022/02/19 02:08:05;;;;;;;1.00;0.60;;;7.90;95.60;;;;;;5019451;28;20466;-51
2022/02/19 02:10:34;;;;;;;3.67;1.13;;;7.80;95.20;;;;;;5019320;28;20476;-52
2022/02/19 02:13:04;;;;;;;2.30;0.87;;;7.90;95.70;;;;;;5019039;28;20501;-53
2022/02/19 02:15:32;;;;;;;1.30;0.73;;;7.90;95.50;;;;;;5019867;28;20929;-49
2022/02/19 02:17:59;;;;;;;2.83;1.07;;;7.90;95.20;;;;;;5022595;28;20474;-59
2022/02/19 02:20:26;;;;;;;3.53;0.93;;;7.80;94.80;;;;;;5023090;28;20976;-53
2022/02/19 02:22:54;;;;;;;3.00;1.63;;;7.90;94.40;;;;;;5019645;28;20510;-55
2022/02/19 02:25:27;;;;;;;4.63;1.13;;;7.90;94.60;;;;;;5019256;28;20474;-51
2022/02/19 02:27:54;;;;;;;4.93;1.77;;;7.90;94.30;;;;;;5019095;28;20457;-52
2022/02/19 02:30:21;;;;;;;1.33;0.90;;;7.80;94.40;;;;;;5020796;28;20541;-49
2022/02/19 02:32:48;;;;;;;3.53;1.77;;;7.80;94.30;;;;;;5020484;28;20828;-56
2022/02/19 02:35:15;;;;;;;4.00;1.47;;;7.80;94.20;;;;;;5020907;28;20466;-54
2022/02/19 02:37:42;;;;;;;3.23;0.80;;;7.80;94.30;;;;;;5020255;28;20534;-53
2022/02/19 02:40:11;;;;;;;2.30;1.00;;;7.80;93.80;;;;;;5020742;28;20454;-54
2022/02/19 02:42:38;;;;;;;1.60;0.60;;;7.80;93.10;;;;;;5021592;28;20509;-56
2022/02/19 02:45:06;;;;;;;3.27;0.97;;;7.80;93.10;;;;;;5025797;28;20549;-53
2022/02/19 02:47:35;;;;;;;3.20;1.10;;;7.80;92.70;;;;;;5022925;28;20470;-57
2022/02/19 02:50:02;;;;;;;5.23;1.47;;;7.80;92.70;;;;;;5021063;28;20487;-54
2022/02/19 02:52:29;;;;;;;2.70;1.33;;;7.80;91.40;;;;;;5021877;28;20460;-56
2022/02/19 02:54:56;;;;;;;5.03;1.10;;;7.80;92.20;;;;;;5037183;28;20514;-44
2022/02/19 02:57:24;;;;;;;2.20;1.27;;;7.80;92.30;;;;;;5022277;28;20447;-54
2022/02/19 02:59:50;;;;;;;1.30;1.07;;;7.80;91.90;;;;;;5018964;28;20471;-58
2022/02/19 03:02:17;;;;;;;4.17;1.40;;;7.80;91.70;;;;;;5024511;28;20504;-56
2022/02/19 03:04:44;;;;;;;6.40;1.70;;;7.70;91.00;;;;;;5029564;28;20485;-59
2022/02/19 03:07:10;;;;;;;2.10;1.37;;;7.80;91.80;;;;;;5028652;28;20469;-56
2022/02/19 03:09:37;;;;;;;7.00;3.80;;;7.70;90.90;;;;;;5035393;28;20487;-54
2022/02/19 03:12:04;;;;;;;3.03;1.23;;;7.70;90.90;;;;;;5035362;28;20477;-55
2022/02/19 03:14:32;;;;;;;5.90;1.47;;;7.60;90.70;;;;;;5035371;28;20486;-56
2022/02/19 03:17:03;;;;;;;1.33;0.93;;;7.60;90.60;;;;;;5035043;28;20447;-50
2022/02/19 03:19:32;;;;;;;3.03;1.07;;;7.60;90.40;;;;;;5034849;28;20469;-52
2022/02/19 03:21:58;;;;;;;1.93;1.10;;;7.60;90.50;;;;;;5034450;28;20456;-55
2022/02/19 03:24:27;;;;;;;1.83;0.90;;;7.50;90.90;;;;;;5034155;28;20483;-59
2022/02/19 03:26:58;;;;;;;1.87;1.10;;;7.50;90.60;;;;;;5034599;28;20476;-56
2022/02/19 03:29:25;;;;;;;1.40;0.97;;;7.50;90.50;;;;;;5034386;28;20460;-50
2022/02/19 03:31:53;;;;;;;1.03;0.80;;;7.60;91.10;;;;;;5034605;28;20437;-50
2022/02/19 03:34:20;;;;;;;24.13;1.83;;;7.60;90.70;;;;;;5034489;28;20477;-53
2022/02/19 03:36:47;;;;;;;1.20;0.80;;;7.60;91.10;;;;;;5034183;28;20458;-53
2022/02/19 03:39:14;;;;;;;3.53;1.10;;;7.60;91.80;;;;;;5033980;28;20448;-55
2022/02/19 03:41:42;;;;;;;1.77;1.10;;;7.50;90.90;;;;;;5034640;28;20495;-52
2022/02/19 03:44:09;;;;;;;5.70;1.50;;;7.50;90.80;;;;;;5034866;28;20493;-58
2022/02/19 03:46:38;;;;;;;3.13;1.20;;;7.50;90.90;;;;;;5035658;28;20467;-51
2022/02/19 03:49:08;;;;;;;0.80;0.60;;;7.50;90.80;;;;;;5036006;28;20447;-53
2022/02/19 03:51:35;;;;;;;4.30;1.20;;;7.50;91.20;;;;;;5036170;28;20446;-54
2022/02/19 03:54:02;;;;;;;3.23;0.90;;;7.50;91.20;;;;;;5035573;28;20445;-53
2022/02/19 03:56:28;;;;;;;2.90;1.20;;;7.40;91.50;;;;;;5035754;28;20419;-57
2022/02/19 03:58:55;;;;;;;5.80;2.80;;;7.40;91.50;;;;;;5035525;28;20462;-59
2022/02/19 04:01:23;;;;;;;2.70;0.87;;;7.40;91.50;;;;;;5035079;28;20457;-52
2022/02/19 04:03:50;;;;;;;1.67;1.10;;;7.40;91.80;;;;;;5035634;28;20446;-52
2022/02/19 04:06:18;;;;;;;3.57;1.03;;;7.40;92.00;;;;;;5034426;28;20471;-57
2022/02/19 04:08:47;;;;;;;1.20;0.83;;;7.40;92.80;;;;;;5035172;28;20507;-51
2022/02/19 04:11:13;;;;;;;2.13;1.00;;;7.40;93.00;;;;;;5035051;28;20499;-51
2022/02/19 04:13:40;;;;;;;1.47;0.80;;;7.50;93.10;;;;;;5034658;28;20458;-49
2022/02/19 04:16:07;;;;;;;4.80;1.20;;;7.40;93.70;;;;;;5034510;28;20496;-56
2022/02/19 04:18:36;;;;;;;1.40;0.83;;;7.40;94.60;;;;;;5034859;28;20430;-56
2022/02/19 04:21:02;;;;;;;2.13;0.93;;;7.40;95.90;;;;;;5035102;28;20457;-52
2022/02/19 04:23:32;;;;;;;7.17;1.33;;;7.40;97.30;;;;;;5035448;28;20441;-52
2022/02/19 04:25:59;;;;;;;1.77;1.07;;;7.40;98.70;;;;;;5034929;28;20487;-53
2022/02/19 04:28:26;;;;;;;3.03;2.60;;;7.30;99.90;;;;;;5035936;28;20472;-53
2022/02/19 04:30:53;;;;;;;1.20;1.10;;;7.20;99.90;;;;;;5034860;28;20566;-55
2022/02/19 04:33:21;;;;;;;3.27;1.10;;;7.10;99.90;;;;;;5034943;28;20445;-51
2022/02/19 04:35:47;;;;;;;1.87;1.20;;;7.10;99.90;;;;;;5035481;28;20511;-48
2022/02/19 04:38:15;;;;;;;7.60;1.50;;;7.00;99.90;;;;;;5035258;28;20446;-50
2022/02/19 04:40:43;;;;;;;1.97;1.57;;;7.00;99.90;;;;;;5035278;28;20471;-52
2022/02/19 04:43:10;;;;;;;6.63;1.63;;;7.00;99.90;;;;;;5034925;28;20470;-52
2022/02/19 04:45:36;;;;;;;0.90;0.70;;;7.00;99.90;;;;;;5034980;28;20504;-52
2022/02/19 04:48:04;;;;;;;2.17;1.30;;;7.00;99.90;;;;;;5035209;28;20480;-53
2022/02/19 04:50:36;;;;;;;3.00;1.07;;;6.90;99.90;;;;;;5034659;28;20465;-50
2022/02/19 04:53:04;;;;;;;1.97;1.27;;;6.90;99.90;;;;;;5034981;28;20480;-52
2022/02/19 04:55:31;;;;;;;1.90;1.00;;;6.80;99.90;;;;;;5034514;28;20452;-49
2022/02/19 04:57:59;;;;;;;3.07;0.80;;;6.80;99.90;;;;;;5034691;28;20498;-54
2022/02/19 05:00:27;;;;;;;1.70;1.17;;;6.70;99.90;;;;;;5034941;28;20475;-57
2022/02/19 05:02:54;;;;;;;6.83;1.13;;;6.70;99.90;;;;;;5034064;28;20472;-55
2022/02/19 05:05:22;;;;;;;7.07;1.67;;;6.70;99.90;;;;;;5034454;28;20493;-54
2022/02/19 05:07:49;;;;;;;1.17;0.90;;;6.70;99.90;;;;;;5034538;28;20476;-50
2022/02/19 05:10:16;;;;;;;2.40;1.33;;;6.70;99.90;;;;;;5034852;28;20439;-46
2022/02/19 05:12:43;;;;;;;1.30;1.10;;;6.60;99.90;;;;;;5034931;28;20448;-54
2022/02/19 05:15:23;;;;;;;1.20;1.10;;;6.60;99.90;;;;;;5034522;28;20466;-60
2022/02/19 05:17:51;;;;;;;1.47;0.90;;;6.60;99.90;;;;;;5037408;28;20430;-51
2022/02/19 05:20:19;;;;;;;1.70;1.27;;;6.60;99.90;;;;;;5038456;28;20514;-57
2022/02/19 05:22:50;;;;;;;2.70;1.80;;;6.60;99.90;;;;;;5038698;28;20460;-57
2022/02/19 05:25:16;;;;;;;2.23;1.70;;;6.60;99.90;;;;;;5037799;28;20474;-53
2022/02/19 05:27:43;;;;;;;0.90;0.60;;;6.60;99.90;;;;;;5037891;28;20466;-51
2022/02/19 05:30:13;;;;;;;3.90;1.63;;;6.50;99.90;;;;;;5038402;28;20452;-61
2022/02/19 05:32:41;;;;;;;2.83;0.97;;;6.60;99.90;;;;;;5037846;28;20452;-57
2022/02/19 05:35:08;;;;;;;3.37;1.30;;;6.60;99.90;;;;;;5038385;28;20445;-57
2022/02/19 05:37:37;;;;;;;1.10;1.00;;;6.50;99.90;;;;;;5038886;28;20470;-55
2022/02/19 05:40:05;;;;;;;0.97;0.63;;;6.50;99.90;;;;;;5038017;28;20520;-55
2022/02/19 05:42:32;;;;;;;2.87;1.00;;;6.50;99.90;;;;;;5037829;28;20476;-51
2022/02/19 05:44:59;;;;;;;3.80;1.83;;;6.50;99.90;;;;;;5038079;28;20631;-60
2022/02/19 05:47:27;;;;;;;3.30;1.10;;;6.50;99.90;;;;;;5038231;28;20511;-58
2022/02/19 05:49:53;;;;;;;1.47;0.90;;;6.50;99.90;;;;;;5037824;28;20433;-53
2022/02/19 05:52:20;;;;;;;2.13;1.20;;;6.40;99.90;;;;;;5038543;28;20867;-59
2022/02/19 05:54:47;;;;;;;2.17;0.93;;;6.40;99.90;;;;;;5038775;28;20429;-58
2022/02/19 05:57:14;;;;;;;3.63;1.27;;;6.40;99.90;;;;;;5038598;28;20504;-57
2022/02/19 05:59:40;;;;;;;2.30;1.10;;;6.30;99.90;;;;;;5037935;28;20484;-53
2022/02/19 06:02:07;;;;;;;3.37;0.90;;;6.30;99.90;;;;;;5038215;28;20510;-58
2022/02/19 06:04:35;;;;;;;1.30;1.07;;;6.20;99.90;;;;;;5037943;28;20445;-57
2022/02/19 06:07:04;;;;;;;1.30;0.93;;;6.20;99.90;;;;;;5037820;28;20477;-57
2022/02/19 06:09:30;;;;;;;0.80;0.60;;;6.20;99.90;;;;;;5037813;28;20464;-49
2022/02/19 06:11:57;;;;;;;1.10;0.80;;;6.10;99.90;;;;;;5038111;28;20454;-55
2022/02/19 06:14:24;;;;;;;1.53;0.70;;;6.10;99.90;;;;;;5037624;28;20454;-56
2022/02/19 06:16:50;;;;;;;3.53;1.30;;;6.10;99.90;;;;;;5037033;28;20516;-56
2022/02/19 06:19:17;;;;;;;1.77;1.10;;;6.00;99.90;;;;;;5037902;28;20454;-56
2022/02/19 06:21:46;;;;;;;5.00;1.20;;;6.10;99.90;;;;;;5037651;28;20505;-50
2022/02/19 06:24:12;;;;;;;1.10;0.90;;;6.00;99.90;;;;;;5038080;28;20497;-56
2022/02/19 06:26:39;;;;;;;1.40;1.00;;;6.00;99.90;;;;;;5037712;28;20509;-52
2022/02/19 06:29:06;;;;;;;3.13;1.17;;;6.00;99.90;;;;;;5037035;28;20458;-58
2022/02/19 06:31:33;;;;;;;0.90;0.67;;;6.00;99.90;;;;;;5037909;28;20481;-53
2022/02/19 06:33:59;;;;;;;2.90;1.20;;;6.00;99.90;;;;;;5037869;28;20462;-53
2022/02/19 06:36:26;;;;;;;1.27;1.17;;;5.90;99.90;;;;;;5037880;28;20442;-56
2022/02/19 06:38:54;;;;;;;1.23;1.00;;;5.90;99.90;;;;;;5036965;28;20458;-53
2022/02/19 06:41:20;;;;;;;1.60;1.00;;;6.10;99.90;;;;;;5037862;28;20454;-56
2022/02/19 06:43:47;;;;;;;3.20;1.03;;;6.00;99.90;;;;;;5037416;28;20480;-58
2022/02/19 06:46:14;;;;;;;2.60;1.13;;;6.00;99.90;;;;;;5037243;28;20461;-55
2022/02/19 06:48:41;;;;;;;1.67;1.27;;;6.10;99.90;;;;;;5036965;28;20747;-51
2022/02/19 06:51:07;;;;;;;2.73;0.87;;;6.10;99.90;;;;;;5037124;28;20534;-50
2022/02/19 06:53:36;;;;;;;7.60;1.60;;;6.10;99.90;;;;;;5036935;28;20477;-54
2022/02/19 06:56:05;;;;;;;1.00;0.73;;;6.10;99.90;;;;;;5036846;28;20558;-56
2022/02/19 06:58:31;;;;;;;1.07;0.80;;;6.10;99.90;;;;;;5036687;28;20445;-54
2022/02/19 07:00:58;;;;;;;1.33;0.70;;;6.10;99.90;;;;;;5036887;28;20466;-55
2022/02/19 07:03:26;;;;;;;3.63;0.80;;;6.10;99.90;;;;;;5036811;28;20432;-61
2022/02/19 07:05:54;;;;;;;1.03;0.70;;;6.10;99.90;;;;;;5037049;28;20489;-53
2022/02/19 07:08:21;;;;;;;0.90;0.70;;;6.10;99.90;;;;;;5036466;28;20516;-55
2022/02/19 07:10:48;;;;;;;1.87;0.70;;;6.20;99.90;;;;;;5036748;28;20465;-54
2022/02/19 07:13:16;;;;;;;3.43;1.00;;;6.10;99.90;;;;;;5036304;28;20470;-57
2022/02/19 07:15:43;;;;;;;1.30;0.70;;;6.10;99.90;;;;;;5036716;28;20446;-50
2022/02/19 07:18:14;;;;;;;1.70;0.90;;;6.10;99.90;;;;;;5036482;28;20497;-58
2022/02/19 07:20:40;;;;;;;1.10;0.70;;;6.10;99.90;;;;;;5036574;28;20459;-59
2022/02/19 07:23:07;;;;;;;2.80;1.40;;;6.10;99.90;;;;;;5035909;28;20508;-57
2022/02/19 07:25:34;;;;;;;4.70;0.80;;;6.10;99.90;;;;;;5035900;28;20478;-58
2022/02/19 07:28:01;;;;;;;1.73;1.33;;;6.10;99.90;;;;;;5036294;28;20445;-60
2022/02/19 07:30:29;;;;;;;1.63;0.90;;;6.10;99.90;;;;;;5036039;28;20482;-60
2022/02/19 07:32:56;;;;;;;2.10;1.13;;;6.10;99.90;;;;;;5035574;28;20458;-55
2022/02/19 07:35:24;;;;;;;3.13;0.90;;;6.10;99.90;;;;;;5035944;28;20472;-58
2022/02/19 07:37:51;;;;;;;1.60;1.00;;;6.10;99.90;;;;;;5035337;28;20480;-61
2022/02/19 07:40:18;;;;;;;2.90;1.20;;;6.10;99.90;;;;;;5035765;28;20454;-59
2022/02/19 07:42:45;;;;;;;3.67;1.13;;;6.10;99.90;;;;;;5036061;28;20509;-55
2022/02/19 07:45:11;;;;;;;2.60;1.90;;;6.10;99.90;;;;;;5036316;28;20843;-61
2022/02/19 07:47:39;;;;;;;5.17;1.10;;;6.10;99.90;;;;;;5035980;28;20450;-60
2022/02/19 07:58:20;;;;;;;1.73;0.70;;;6.20;99.90;;;;;;5035932;28;20449;-58
2022/02/19 08:00:47;;;;;;;1.40;0.80;;;6.10;99.90;;;;;;5035841;28;20457;-56
2022/02/19 08:03:15;;;;;;;1.30;0.97;;;6.10;99.90;;;;;;5035394;28;20451;-55
2022/02/19 08:05:43;;;;;;;2.37;0.93;;;6.20;99.90;;;;;;5035502;28;20462;-60
2022/02/19 08:08:09;;;;;;;1.60;0.90;;;6.20;99.90;;;;;;5035311;28;20435;-54
2022/02/19 08:10:39;;;;;;;1.00;0.70;;;6.20;99.90;;;;;;5035680;28;20517;-56
2022/02/19 08:13:08;;;;;;;1.20;0.87;;;6.20;99.90;;;;;;5035563;28;20461;-57
2022/02/19 08:15:35;;;;;;;1.97;0.90;;;6.20;99.90;;;;;;5035969;28;20462;-60
2022/02/19 08:18:02;;;;;;;3.20;0.90;;;6.20;99.90;;;;;;5035236;28;20500;-58
2022/02/19 08:20:30;;;;;;;1.43;0.70;;;6.20;99.90;;;;;;5036001;28;20443;-53
2022/02/19 08:22:57;;;;;;;2.43;1.17;;;6.20;99.90;;;;;;5035600;28;20451;-47
2022/02/19 08:25:24;;;;;;;1.90;1.47;;;6.30;99.90;;;;;;5035210;28;20565;-59
2022/02/19 08:27:53;;;;;;;2.20;1.00;;;6.30;99.90;;;;;;5035168;28;20523;-54
2022/02/19 08:30:22;;;;;;;3.10;0.90;;;6.30;99.90;;;;;;5035138;28;20445;-57
2022/02/19 08:32:49;;;;;;;1.23;0.80;;;6.30;99.90;;;;;;5035628;28;20506;-57
2022/02/19 08:35:19;;;;;;;8.63;1.73;;;6.30;99.90;;;;;;5035198;28;20471;-56
2022/02/19 08:37:50;;;;;;;0.80;0.60;;;6.20;99.90;;;;;;5035349;28;20450;-58
2022/02/19 08:40:17;;;;;;;1.50;0.97;;;6.10;99.90;;;;;;5035437;28;20500;-59
2022/02/19 08:42:45;;;;;;;1.27;0.97;;;6.10;99.90;;;;;;5035351;28;20484;-58
2022/02/19 08:45:12;;;;;;;1.40;0.73;;;6.00;99.90;;;;;;5035286;28;20435;-58
2022/02/19 08:47:39;;;;;;;5.70;0.90;;;6.00;99.90;;;;;;5035374;28;20541;-55
2022/02/19 08:50:11;;;;;;;1.20;0.80;;;6.00;99.90;;;;;;5035008;28;20439;-53
2022/02/19 08:52:38;;;;;;;1.80;0.77;;;6.00;99.90;;;;;;5038179;28;20467;-56
2022/02/19 08:55:07;;;;;;;0.90;0.70;;;6.00;99.90;;;;;;5034110;28;20496;-61
2022/02/19 08:57:34;;;;;;;1.87;1.20;;;6.00;99.90;;;;;;5036843;28;20476;-68
2022/02/19 09:00:00;;;;;;;0.90;0.63;;;5.90;99.90;;;;;;5039130;28;20426;-60
2022/02/19 09:02:27;;;;;;;1.97;1.20;;;5.90;99.90;;;;;;5037706;28;20501;-62
2022/02/19 09:04:54;;;;;;;1.47;0.73;;;5.90;99.90;;;;;;5027025;28;20471;-61
2022/02/19 09:07:20;;;;;;;1.93;0.90;;;5.90;99.90;;;;;;5037029;28;20512;-59
2022/02/19 09:09:47;;;;;;;1.10;0.87;;;5.80;99.90;;;;;;5034111;28;20475;-59
2022/02/19 09:12:18;;;;;;;1.33;0.80;;;5.90;99.90;;;;;;5038869;28;20438;-56
2022/02/19 09:14:44;;;;;;;1.63;0.90;;;5.80;99.90;;;;;;5039958;28;20416;-57
2022/02/19 09:17:11;;;;;;;3.00;0.80;;;5.70;99.90;;;;;;5039596;28;20441;-63
2022/02/19 09:19:38;;;;;;;3.67;0.80;;;5.70;99.90;;;;;;5039299;28;20497;-57
2022/02/19 09:22:07;;;;;;;2.07;0.80;;;5.70;99.90;;;;;;5038850;28;20431;-57
2022/02/19 09:24:34;;;;;;;1.20;0.63;;;5.80;99.90;;;;;;5038455;28;20458;-60
2022/02/19 09:27:02;;;;;;;3.00;0.90;;;5.60;99.90;;;;;;5037005;28;20489;-54
2022/02/19 09:29:30;;;;;;;2.13;1.00;;;5.60;99.90;;;;;;5036866;28;20427;-49
2022/02/19 09:31:58;;;;;;;1.43;0.87;;;5.70;99.90;;;;;;5037438;28;20452;-57
2022/02/19 09:34:25;;;;;;;0.80;0.60;;;5.70;99.90;;;;;;5037801;28;20443;-59
2022/02/19 09:36:59;;;;;;;2.90;0.80;;;5.80;99.90;;;;;;5038261;28;20429;-56
2022/02/19 09:39:26;;;;;;;4.70;0.80;;;5.80;99.90;;;;;;5038077;28;20433;-59
2022/02/19 09:41:59;;;;;;;1.30;0.70;;;5.80;99.90;;;;;;5037974;28;20473;-53
2022/02/19 09:44:30;;;;;;;1.77;0.90;;;5.60;99.90;;;;;;5037974;28;20486;-54
2022/02/19 09:46:58;;;;;;;4.20;1.07;;;5.50;99.90;;;;;;5038216;28;20485;-58
2022/02/19 09:49:26;;;;;;;2.30;1.77;;;5.40;99.90;;;;;;5038490;28;20429;-52
2022/02/19 09:51:59;;;;;;;2.20;1.27;;;5.40;99.90;;;;;;5038002;28;20469;-58
2022/02/19 09:54:26;;;;;;;1.20;0.90;;;5.50;99.90;;;;;;5037641;28;20440;-60
2022/02/19 09:56:54;;;;;;;1.43;0.70;;;5.50;99.90;;;;;;5036296;28;20443;-60
2022/02/19 09:59:21;;;;;;;3.13;1.20;;;5.60;99.90;;;;;;5037383;28;20542;-60
2022/02/19 10:02:01;;;;;;;6.10;1.10;;;5.60;99.90;;;;;;5037767;28;20446;-52
2022/02/19 10:04:28;;;;;;;4.37;1.50;;;5.70;99.90;;;;;;5036084;28;20504;-57
2022/02/19 10:06:58;;;;;;;1.30;0.93;;;5.80;99.90;;;;;;5037249;28;20496;-57
2022/02/19 10:09:25;;;;;;;12.90;1.10;;;5.80;99.90;;;;;;5037913;28;20908;-60
2022/02/19 10:11:55;;;;;;;1.00;0.60;;;5.90;99.90;;;;;;5037946;28;20437;-61
2022/02/19 10:14:29;;;;;;;3.53;1.20;;;6.00;99.90;;;;;;5038060;28;20430;-53
2022/02/19 10:17:15;;;;;;;2.10;0.80;;;6.00;99.90;;;;;;5037790;28;20467;-62
2022/02/19 10:19:54;;;;;;;3.57;0.80;;;6.00;99.90;;;;;;5037714;28;20421;-58
2022/02/19 10:22:25;;;;;;;2.57;0.93;;;6.10;99.90;;;;;;5037965;28;20456;-61
2022/02/19 10:24:55;;;;;;;1.50;1.30;;;6.10;99.90;;;;;;5038090;28;20408;-54
2022/02/19 10:27:22;;;;;;;3.13;0.93;;;6.20;99.90;;;;;;5038286;28;20477;-60
2022/02/19 10:29:51;;;;;;;1.93;1.13;;;6.20;99.90;;;;;;5037671;28;20440;-57
2022/02/19 10:32:20;;;;;;;1.10;1.00;;;6.30;99.90;;;;;;5038407;28;20481;-56
2022/02/19 10:35:05;;;;;;;1.50;0.90;;;6.40;99.90;;;;;;5038204;28;20515;-56
2022/02/19 10:37:42;;;;;;;1.70;0.97;;;6.40;99.90;;;;;;5037727;28;20494;-54
2022/02/19 10:40:30;;;;;;;1.60;0.90;;;6.40;99.90;;;;;;5037758;28;20491;-59
2022/02/19 10:42:58;;;;;;;2.40;0.90;;;6.40;99.90;;;;;;5037292;28;20460;-54
2022/02/19 10:45:29;;;;;;;0.80;0.60;;;6.40;99.90;;;;;;5037451;28;20485;-55
2022/02/19 10:51:15;;;;;;;1.93;0.87;;;6.40;99.90;;;;;;5069475;28;20504;-55
2022/02/19 10:53:47;;;;;;;1.77;0.93;;;6.40;99.90;;;;;;5069033;28;20430;-60
2022/02/19 10:56:17;;;;;;;1.00;0.60;;;6.50;99.90;;;;;;5068526;28;20439;-62
2022/02/19 10:58:59;;;;;;;2.73;0.83;;;6.50;99.90;;;;;;5068510;28;20454;-52
2022/02/19 11:01:26;;;;;;;4.00;1.20;;;6.50;99.90;;;;;;5068764;28;20468;-60
2022/02/19 11:03:53;;;;;;;3.57;1.10;;;6.50;99.90;;;;;;5067962;28;20468;-59
2022/02/19 11:06:23;;;;;;;4.73;2.10;;;6.50;99.90;;;;;;5069310;28;20432;-54
2022/02/19 11:08:51;;;;;;;2.37;1.00;;;6.50;99.90;;;;;;5068833;28;20494;-59
2022/02/19 11:11:20;;;;;;;3.23;1.00;;;6.40;99.90;;;;;;5069228;28;20491;-61
2022/02/19 11:13:47;;;;;;;6.47;1.23;;;6.40;99.90;;;;;;5069133;28;20459;-58
2022/02/19 11:16:14;;;;;;;1.47;0.83;;;6.40;99.90;;;;;;5069354;28;20452;-59
2022/02/19 11:18:42;;;;;;;8.50;1.87;;;6.30;99.90;;;;;;5068760;28;20444;-58
2022/02/19 11:21:10;;;;;;;6.97;1.60;;;6.20;99.90;;;;;;5068725;28;20433;-60
2022/02/19 11:23:44;;;;;;;2.80;1.33;;;6.20;99.90;;;;;;5068658;28;20452;-56
2022/02/19 11:26:11;;;;;;;3.30;0.93;;;6.30;99.90;;;;;;5068301;28;20427;-59
2022/02/19 11:28:38;;;;;;;6.23;2.03;;;6.30;99.90;;;;;;5067951;28;20464;-56
2022/02/19 11:31:08;;;;;;;2.80;1.30;;;6.40;99.90;;;;;;5068110;28;20456;-57
2022/02/19 11:33:39;;;;;;;3.23;0.97;;;6.50;99.90;;;;;;5067890;28;20460;-59
2022/02/19 11:36:11;;;;;;;4.00;1.33;;;6.50;99.90;;;;;;5068087;28;20795;-59
2022/02/19 11:38:53;;;;;;;3.47;1.40;;;6.60;99.90;;;;;;5067492;28;20484;-59
2022/02/19 11:41:32;;;;;;;3.33;1.40;;;6.70;99.90;;;;;;5067842;28;20428;-57
2022/02/19 11:43:58;;;;;;;5.80;1.00;;;6.90;99.90;;;;;;5067261;28;20907;-57
2022/02/19 11:46:34;;;;;;;2.60;1.47;;;7.10;99.90;;;;;;5067316;28;20473;-61
2022/02/19 11:49:17;;;;;;;3.53;1.20;;;7.20;99.90;;;;;;5067724;28;20486;-56
2022/02/19 11:51:43;;;;;;;6.00;2.30;;;7.30;99.90;;;;;;5062649;28;20465;-62
2022/02/19 11:54:27;;;;;;;3.47;1.10;;;7.30;99.90;;;;;;5060684;28;20441;-62
2022/02/19 11:56:55;;;;;;;1.93;0.90;;;7.40;99.90;;;;;;5061508;28;20428;-59
2022/02/19 11:59:23;;;;;;;1.67;1.10;;;7.30;99.90;;;;;;5065357;28;20435;-61
2022/02/19 12:02:15;;;;;;;2.83;0.80;;;7.30;99.90;;;;;;5056229;28;20441;-62
2022/02/19 12:04:42;;;;;;;1.20;0.90;;;7.30;99.90;;;;;;5053376;28;20483;-58
2022/02/19 12:07:15;;;;;;;6.43;2.60;;;7.40;99.90;;;;;;5053216;28;20460;-59
2022/02/19 12:10:07;;;;;;;2.30;1.47;;;7.50;99.90;;;;;;5054447;28;20502;-55
2022/02/19 12:13:08;;;;;;;2.13;1.10;;;7.50;99.90;;;;;;5054703;28;20449;-58
2022/02/19 12:15:36;;;;;;;2.83;1.20;;;7.40;99.90;;;;;;5054412;28;20476;-54
2022/02/19 12:18:03;;;;;;;1.03;0.67;;;7.40;99.90;;;;;;5054273;28;20445;-56
2022/02/19 12:20:34;;;;;;;1.63;0.87;;;7.30;99.90;;;;;;5054521;28;20436;-54
2022/02/19 12:23:03;;;;;;;15.33;1.40;;;7.30;99.90;;;;;;5053930;28;20476;-58
2022/02/19 12:26:16;;;;;;;2.40;1.07;;;7.30;99.90;;;;;;5053814;28;20535;-54
2022/02/19 12:28:46;;;;;;;1.70;1.20;;;7.40;99.90;;;;;;5054222;28;20461;-61
2022/02/19 12:31:20;;;;;;;6.27;1.03;;;7.50;99.90;;;;;;5053806;28;20464;-57
2022/02/19 12:33:49;;;;;;;8.30;1.53;;;7.50;99.90;;;;;;5053739;28;20497;-61
2022/02/19 12:36:16;;;;;;;1.60;0.67;;;7.60;99.90;;;;;;5053957;28;20512;-55
2022/02/19 12:38:48;;;;;;;2.37;1.00;;;7.60;99.90;;;;;;5057111;28;20442;-56
2022/02/19 12:41:15;;;;;;;6.03;1.10;;;7.50;99.90;;;;;;5067413;28;20444;-57
2022/02/19 12:44:04;;;;;;;3.47;1.13;;;7.60;99.90;;;;;;5061288;28;20509;-56
2022/02/19 12:46:34;;;;;;;1.50;1.00;;;7.70;99.90;;;;;;5056574;28;20501;-54
2022/02/19 12:49:01;;;;;;;7.10;1.27;;;7.80;99.90;;;;;;5056228;27;20443;-60
2022/02/19 12:51:28;;;;;;;3.80;0.80;;;8.00;99.90;;;;;;5116487;27;20468;-61
2022/02/19 12:53:55;;;;;;;8.43;1.30;;;8.20;99.90;;;;;;5051576;28;20447;-61
2022/02/19 12:56:23;;;;;;;2.70;1.20;;;8.20;99.90;;;;;;5065272;28;20476;-54
2022/02/19 12:58:51;;;;;;;1.40;1.07;;;8.20;99.90;;;;;;5069454;28;20516;-56
2022/02/19 13:01:19;;;;;;;3.63;1.40;;;8.20;99.90;;;;;;5070982;28;20431;-58
2022/02/19 13:03:45;;;;;;;4.20;1.20;;;8.20;99.90;;;;;;5073353;28;20789;-58
2022/02/19 13:06:12;;;;;;;2.13;1.03;;;8.10;99.90;;;;;;5073459;28;20457;-60
2022/02/19 13:08:39;;;;;;;3.10;1.13;;;8.00;99.90;;;;;;5073238;28;20473;-58
2022/02/19 13:11:08;;;;;;;1.87;0.60;;;8.10;99.90;;;;;;5072738;28;20499;-61
2022/02/19 13:13:38;;;;;;;5.80;1.60;;;8.30;99.90;;;;;;5071130;28;20450;-56
2022/02/19 13:16:07;;;;;;;2.17;0.97;;;8.50;99.90;;;;;;5071490;28;20837;-58